This is the latest recevied weather packets stored in our database for station/object NC4J. If no packets are shown the sender has not sent any weather packets the latest 10 day(s).
| Time | Temp. | Humidity | Pressure | Rain* | Wind** | Luminosity | Snow |
|---|---|---|---|---|---|---|---|
| 1777622336 | 10.56° C | 66% | 1014.4 hPa | 0 mm | - | 0 W/m² | - |
| 1777622034 | 10.56° C | 64% | 1014 hPa | 0 mm | - | 0 W/m² | - |
| 1777621734 | 10.56° C | 64% | 1014 hPa | 0 mm | - | 0 W/m² | - |
| 1777621431 | 10.56° C | 64% | 1014 hPa | 0 mm | - | 0 W/m² | - |
| 1777621126 | 11.11° C | 63% | 1014 hPa | 0 mm | - | 0 W/m² | - |
| 1777620823 | 11.11° C | 63% | 1014 hPa | 0 mm | - | 0 W/m² | - |
| 1777620519 | 11.11° C | 60% | 1014 hPa | 0 mm | - | 0 W/m² | - |
| 1777620217 | 11.11° C | 54% | 1013.8 hPa | 0 mm | - | 0 W/m² | - |
| 1777619913 | 11.11° C | 57% | 1014 hPa | 0 mm | - | 0 W/m² | - |
| 1777619608 | 11.11° C | 58% | 1014.1 hPa | 0 mm | - | 0 W/m² | - |
| 1777619303 | 11.11° C | 60% | 1014.2 hPa | 0 mm | - | 0 W/m² | - |
| 1777618998 | 11.11° C | 56% | 1014.1 hPa | 0 mm | - | 0 W/m² | - |
| 1777618693 | 11.11° C | 60% | 1014.6 hPa | 0 mm | - | 0 W/m² | - |
| 1777618393 | 11.11° C | 55% | 1014.2 hPa | 0 mm | - | 0 W/m² | - |
| 1777618091 | 11.11° C | 57% | 1014.4 hPa | 0 mm | - | 0 W/m² | - |
| 1777617788 | 11.11° C | 58% | 1014.6 hPa | 0 mm | - | 0 W/m² | - |
| 1777617487 | 11.11° C | 59% | 1014.5 hPa | 0 mm | - | 0 W/m² | - |
| 1777617185 | 11.11° C | 57% | 1014.6 hPa | 0 mm | - | 0 W/m² | - |
| 1777616881 | 11.11° C | 55% | 1014.6 hPa | 0 mm | - | 0 W/m² | - |
| 1777616577 | 11.11° C | 58% | 1014.5 hPa | 0 mm | - | 0 W/m² | - |
| 1777616277 | 11.11° C | 59% | 1014.6 hPa | 0 mm | - | 0 W/m² | - |
| 1777615975 | 11.11° C | 61% | 1014.7 hPa | 0 mm | - | 0 W/m² | - |
| 1777615671 | 11.11° C | 60% | 1014.8 hPa | 0 mm | - | 0 W/m² | - |
| 1777615368 | 11.11° C | 59% | 1014.9 hPa | 0 mm | - | 0 W/m² | - |
| 1777615067 | 11.11° C | 58% | 1014.9 hPa | 0 mm | - | 0 W/m² | - |
* Rain latest hour (hover to see other rain measurements)
** Current wind speed in m/s (hover to see current wind gust speed)